createdAt,value
2022-10-03T00:00:53.812Z,99.99
2022-10-03T00:01:53.839Z,99.99
2022-10-03T00:02:53.821Z,99.99
2022-10-03T00:03:53.776Z,99.99
2022-10-03T00:04:53.767Z,99.99
2022-10-03T00:05:53.756Z,99.99
2022-10-03T00:06:53.741Z,99.99
2022-10-03T00:07:53.736Z,99.99
2022-10-03T00:08:53.724Z,99.99
2022-10-03T00:09:53.731Z,99.99
2022-10-03T00:10:53.715Z,99.99
2022-10-03T00:11:53.703Z,99.99
2022-10-03T00:12:53.695Z,99.99
2022-10-03T00:13:53.686Z,99.99
2022-10-03T00:14:53.693Z,99.99
2022-10-03T00:15:53.715Z,99.99
2022-10-03T00:16:53.666Z,99.99
2022-10-03T00:17:53.652Z,99.99
2022-10-03T00:18:53.643Z,99.99
2022-10-03T00:19:53.651Z,99.99
2022-10-03T00:20:54.346Z,99.99
2022-10-03T00:21:53.630Z,99.99
2022-10-03T00:22:54.351Z,99.99
2022-10-03T00:23:53.610Z,99.99
2022-10-03T00:24:53.599Z,99.99
2022-10-03T00:25:53.604Z,99.99
2022-10-03T00:26:53.584Z,99.99
2022-10-03T00:27:53.652Z,99.99
2022-10-03T00:28:53.572Z,99.99
2022-10-03T00:30:42.157Z,99.99
2022-10-03T00:31:42.567Z,99.99
2022-10-03T00:32:42.113Z,99.99
2022-10-03T00:33:43.202Z,99.99
2022-10-03T00:34:43.194Z,99.99
2022-10-03T00:35:43.188Z,99.99
2022-10-03T00:36:43.173Z,99.99
2022-10-03T00:37:43.168Z,99.99
2022-10-03T00:38:43.174Z,99.99
2022-10-03T00:39:43.147Z,99.99
2022-10-03T00:40:43.136Z,99.99
2022-10-03T00:41:43.141Z,99.99
2022-10-03T00:42:43.121Z,99.99
2022-10-03T00:43:43.128Z,99.99
2022-10-03T00:44:43.115Z,99.99
2022-10-03T00:45:43.101Z,99.99
2022-10-03T00:46:43.182Z,99.99
2022-10-03T00:47:43.090Z,99.99
2022-10-03T00:48:43.090Z,99.99
2022-10-03T00:49:43.074Z,99.99
2022-10-03T00:50:43.063Z,99.99
2022-10-03T00:51:43.057Z,99.99
2022-10-03T00:52:43.047Z,99.99
2022-10-03T00:53:43.037Z,99.99
2022-10-03T00:54:43.027Z,99.99
2022-10-03T00:55:43.020Z,99.99
2022-10-03T00:56:43.063Z,99.99
2022-10-03T00:57:43.021Z,99.99
2022-10-03T00:58:42.998Z,99.99
2022-10-03T00:59:46.222Z,99.99
2022-10-03T01:00:45.045Z,99.99
2022-10-03T01:01:43.360Z,99.99
2022-10-03T01:02:42.979Z,99.99
2022-10-03T01:03:42.967Z,99.99
2022-10-03T01:04:42.952Z,99.99
2022-10-03T01:05:42.948Z,99.99
2022-10-03T01:06:42.952Z,99.99
2022-10-03T01:07:42.923Z,99.99
2022-10-03T01:08:42.924Z,99.99
2022-10-03T01:09:42.924Z,99.99
2022-10-03T01:10:42.914Z,99.99
2022-10-03T01:11:43.211Z,99.99
2022-10-03T01:12:42.890Z,99.99
2022-10-03T01:13:42.986Z,99.99
2022-10-03T01:14:42.881Z,99.99
2022-10-03T01:15:42.905Z,99.99
2022-10-03T01:16:42.871Z,99.99
2022-10-03T01:17:42.848Z,99.99
2022-10-03T01:18:42.836Z,99.99
2022-10-03T01:19:42.830Z,99.99
2022-10-03T01:20:42.824Z,99.99
2022-10-03T01:21:42.880Z,99.99
2022-10-03T01:22:42.813Z,99.99
2022-10-03T01:23:42.812Z,99.99
2022-10-03T01:24:42.790Z,99.99
2022-10-03T01:25:42.786Z,99.99
2022-10-03T01:26:42.777Z,99.99
2022-10-03T01:27:42.767Z,99.99
2022-10-03T01:28:42.777Z,99.99
2022-10-03T01:29:42.761Z,99.99
2022-10-03T01:30:42.753Z,99.99
2022-10-03T01:31:43.242Z,99.99
2022-10-03T01:32:42.754Z,99.99
2022-10-03T01:33:42.723Z,99.99
2022-10-03T01:34:42.718Z,99.99
2022-10-03T01:35:42.709Z,99.99
2022-10-03T01:36:43.483Z,99.99
2022-10-03T01:37:42.703Z,99.99
2022-10-03T01:38:42.694Z,99.99
2022-10-03T01:39:42.676Z,99.99
2022-10-03T01:40:42.708Z,99.99
2022-10-03T01:41:43.006Z,99.99
2022-10-03T01:42:42.661Z,99.99
2022-10-03T01:43:42.647Z,99.99
2022-10-03T01:44:42.632Z,99.99
2022-10-03T01:45:42.644Z,99.99
2022-10-03T01:46:42.666Z,99.99
2022-10-03T01:47:42.613Z,99.99
2022-10-03T01:48:42.617Z,99.99
2022-10-03T01:49:42.598Z,99.99
2022-10-03T01:50:43.489Z,99.99
2022-10-03T01:51:42.660Z,99.99
2022-10-03T01:52:43.571Z,99.99
2022-10-03T01:53:43.444Z,99.99
2022-10-03T01:54:42.551Z,99.99
2022-10-03T01:55:43.067Z,99.99
2022-10-03T01:56:42.541Z,99.99
2022-10-03T01:57:42.534Z,99.99
2022-10-03T01:58:42.526Z,99.99
2022-10-03T01:59:42.531Z,99.99
2022-10-03T02:00:42.571Z,99.99
2022-10-03T02:01:43.471Z,99.99
2022-10-03T02:02:44.027Z,99.99
2022-10-03T02:03:42.492Z,99.99
2022-10-03T02:04:42.554Z,99.99
2022-10-03T02:05:42.473Z,99.99
2022-10-03T02:06:42.471Z,99.99
2022-10-03T02:07:42.462Z,99.99
2022-10-03T02:08:42.457Z,99.99
2022-10-03T02:09:42.440Z,99.99
2022-10-03T02:10:42.438Z,99.99
2022-10-03T02:11:42.697Z,99.99
2022-10-03T02:12:42.408Z,99.99
2022-10-03T02:13:43.408Z,99.99
2022-10-03T02:14:42.398Z,99.99
2022-10-03T02:15:42.414Z,99.99
2022-10-03T02:16:42.414Z,99.99
2022-10-03T02:17:42.376Z,99.99
2022-10-03T02:18:42.405Z,99.99
2022-10-03T02:19:42.356Z,99.99
2022-10-03T02:20:42.399Z,99.99
2022-10-03T02:21:42.376Z,99.99
2022-10-03T02:22:42.356Z,99.99
2022-10-03T02:23:42.330Z,99.99
2022-10-03T02:24:42.323Z,99.99
2022-10-03T02:25:42.323Z,99.99
2022-10-03T02:26:42.302Z,99.99
2022-10-03T02:27:42.337Z,99.99
2022-10-03T02:28:42.287Z,99.99
2022-10-03T02:29:42.292Z,99.99
2022-10-03T02:30:42.280Z,99.99
2022-10-03T02:31:42.767Z,99.99
2022-10-03T02:32:42.265Z,99.99
2022-10-03T02:33:42.252Z,99.99
2022-10-03T02:34:42.253Z,99.99
2022-10-03T02:35:42.245Z,99.99
2022-10-03T02:36:42.246Z,99.99
2022-10-03T02:37:42.223Z,99.99
2022-10-03T02:38:42.217Z,99.99
2022-10-03T02:39:42.211Z,99.99
2022-10-03T02:40:42.219Z,99.99
2022-10-03T02:41:42.534Z,99.99
2022-10-03T02:42:42.213Z,99.99
2022-10-03T02:43:42.220Z,99.99
2022-10-03T02:44:42.183Z,99.99
2022-10-03T02:45:42.207Z,99.99
2022-10-03T02:46:42.150Z,99.99
2022-10-03T02:47:42.154Z,99.99
2022-10-03T02:48:42.134Z,99.99
2022-10-03T02:49:42.127Z,99.99
2022-10-03T02:50:42.120Z,99.99
2022-10-03T02:51:42.501Z,99.99
2022-10-03T02:52:42.111Z,99.99
2022-10-03T02:53:42.135Z,99.99
2022-10-03T02:54:42.088Z,99.99
2022-10-03T02:55:42.087Z,99.99
2022-10-03T02:56:42.073Z,99.99
2022-10-03T02:57:42.067Z,99.99
2022-10-03T02:58:42.082Z,99.99
2022-10-03T02:59:42.056Z,99.99
2022-10-03T03:00:42.095Z,99.99
2022-10-03T03:01:42.483Z,99.99
2022-10-03T03:02:42.023Z,99.99
2022-10-03T03:03:42.028Z,99.99
2022-10-03T03:04:42.050Z,99.99
2022-10-03T03:05:42.036Z,99.99
2022-10-03T03:06:41.991Z,99.99
2022-10-03T03:07:41.984Z,99.99
2022-10-03T03:08:41.991Z,99.99
2022-10-03T03:09:41.973Z,99.99
2022-10-03T03:10:41.976Z,99.99
2022-10-03T03:11:42.493Z,99.99
2022-10-03T03:12:41.949Z,99.99
2022-10-03T03:13:42.014Z,99.99
2022-10-03T03:14:41.965Z,99.99
2022-10-03T03:15:41.924Z,99.99
2022-10-03T03:16:41.968Z,99.99
2022-10-03T03:17:41.912Z,99.99
2022-10-03T03:18:41.891Z,99.99
2022-10-03T03:19:41.907Z,99.99
2022-10-03T03:20:41.881Z,99.99
2022-10-03T03:21:42.450Z,99.99
2022-10-03T03:22:41.863Z,99.99
2022-10-03T03:23:41.859Z,99.99
2022-10-03T03:24:41.866Z,99.99
2022-10-03T03:25:41.840Z,99.99
2022-10-03T03:26:41.830Z,99.99
2022-10-03T03:27:41.822Z,99.99
2022-10-03T03:28:41.826Z,99.99
2022-10-03T03:29:42.499Z,99.99
2022-10-03T03:30:41.816Z,99.99
2022-10-03T03:31:43.281Z,99.99
2022-10-03T03:32:41.782Z,99.99
2022-10-03T03:33:41.778Z,99.99
2022-10-03T03:34:41.790Z,99.99
2022-10-03T03:35:41.756Z,99.99
2022-10-03T03:36:41.764Z,99.99
2022-10-03T03:37:41.771Z,99.99
2022-10-03T03:38:41.729Z,99.99
2022-10-03T03:39:41.727Z,99.99
2022-10-03T03:40:41.714Z,99.99
2022-10-03T03:41:42.189Z,99.99
2022-10-03T03:42:41.703Z,99.99
2022-10-03T03:43:41.691Z,99.99
2022-10-03T03:44:41.682Z,99.99
2022-10-03T03:45:41.731Z,99.99
2022-10-03T03:46:41.673Z,99.99
2022-10-03T03:47:41.667Z,99.99
2022-10-03T03:48:41.647Z,99.99
2022-10-03T03:49:41.654Z,99.99
2022-10-03T03:50:41.671Z,99.99
2022-10-03T03:51:41.909Z,99.99
2022-10-03T03:52:41.625Z,99.99
2022-10-03T03:53:41.615Z,99.99
2022-10-03T03:54:41.615Z,99.99
2022-10-03T03:55:41.596Z,99.99
2022-10-03T03:56:41.594Z,99.99
2022-10-03T03:57:41.580Z,99.99
2022-10-03T03:58:41.573Z,99.99
2022-10-03T03:59:41.590Z,99.99
2022-10-03T04:00:41.588Z,99.99
2022-10-03T04:01:42.041Z,99.99
2022-10-03T04:02:41.542Z,99.99
2022-10-03T04:03:41.525Z,99.99
2022-10-03T04:04:41.545Z,99.99
2022-10-03T04:05:41.510Z,99.99
2022-10-03T04:06:41.504Z,99.99
2022-10-03T04:07:41.496Z,99.99
2022-10-03T04:08:41.490Z,99.99
2022-10-03T04:09:41.489Z,99.99
2022-10-03T04:10:41.476Z,99.99
2022-10-03T04:11:41.991Z,99.99
2022-10-03T04:12:41.456Z,99.99
2022-10-03T04:13:41.449Z,99.99
2022-10-03T04:14:41.481Z,99.99
2022-10-03T04:15:41.441Z,99.99
2022-10-03T04:16:41.475Z,99.99
2022-10-03T04:17:41.429Z,99.99
2022-10-03T04:18:41.451Z,99.99
2022-10-03T04:19:41.404Z,99.99
2022-10-03T04:20:41.409Z,99.99
2022-10-03T04:21:41.926Z,99.99
2022-10-03T04:22:41.421Z,99.99
2022-10-03T04:23:41.376Z,99.99
2022-10-03T04:24:41.419Z,99.99
2022-10-03T04:25:41.398Z,99.99
2022-10-03T04:26:41.361Z,99.99
2022-10-03T04:27:41.341Z,99.99
2022-10-03T04:28:41.333Z,99.99
2022-10-03T04:29:41.356Z,99.99
2022-10-03T04:30:41.329Z,99.99
2022-10-03T04:31:41.671Z,99.99
2022-10-03T04:32:41.316Z,99.99
2022-10-03T04:33:41.297Z,99.99
2022-10-03T04:34:41.291Z,99.99
2022-10-03T04:35:41.273Z,99.99
2022-10-03T04:36:41.271Z,99.99
2022-10-03T04:37:41.258Z,99.99
2022-10-03T04:38:41.265Z,99.99
2022-10-03T04:39:41.248Z,99.99
2022-10-03T04:40:41.240Z,99.99
2022-10-03T04:41:43.182Z,99.99
2022-10-03T04:42:42.215Z,99.99
2022-10-03T04:43:41.210Z,99.99
2022-10-03T04:44:41.193Z,99.99
2022-10-03T04:45:42.277Z,99.99
2022-10-03T04:46:41.199Z,99.99
2022-10-03T04:47:41.194Z,99.99
2022-10-03T04:48:41.615Z,99.99
2022-10-03T04:49:41.170Z,99.99
2022-10-03T04:50:41.156Z,99.99
2022-10-03T04:51:41.541Z,99.99
2022-10-03T04:52:41.187Z,99.99
2022-10-03T04:53:41.139Z,99.99
2022-10-03T04:54:41.133Z,99.99
2022-10-03T04:55:41.154Z,99.99
2022-10-03T04:56:41.110Z,99.99
2022-10-03T04:57:41.115Z,99.99
2022-10-03T04:58:41.094Z,99.99
2022-10-03T04:59:42.022Z,99.99
2022-10-03T05:00:41.094Z,99.99
2022-10-03T05:01:41.466Z,99.99
2022-10-03T05:02:41.062Z,99.99
2022-10-03T05:03:41.062Z,99.08
2022-10-03T05:04:41.047Z,99.29
2022-10-03T05:05:41.080Z,99.49
2022-10-03T05:06:41.029Z,99.49
2022-10-03T05:07:41.025Z,99.70
2022-10-03T05:08:41.017Z,99.80
2022-10-03T05:09:41.616Z,99.49
2022-10-03T05:10:41.004Z,99.60
2022-10-03T05:11:41.194Z,99.60
2022-10-03T05:12:40.975Z,99.99
2022-10-03T05:13:40.992Z,99.99
2022-10-03T05:14:40.961Z,99.99
2022-10-03T05:15:40.960Z,99.99
2022-10-03T05:16:41.006Z,99.99
2022-10-03T05:17:40.945Z,99.99
2022-10-03T05:18:40.937Z,99.99
2022-10-03T05:19:40.925Z,99.99
2022-10-03T05:20:40.930Z,99.99
2022-10-03T05:21:41.352Z,99.99
2022-10-03T05:22:40.904Z,99.34
2022-10-03T05:23:40.909Z,98.83
2022-10-03T05:24:40.888Z,99.18
2022-10-03T05:25:40.883Z,98.71
2022-10-03T05:26:45.021Z,99.43
2022-10-03T05:27:42.862Z,99.39
2022-10-03T05:28:40.872Z,99.49
2022-10-03T05:29:40.841Z,99.99
2022-10-03T05:30:40.836Z,99.99
2022-10-03T05:31:41.315Z,99.99
2022-10-03T05:32:40.827Z,99.99
2022-10-03T05:33:40.815Z,99.99
2022-10-03T05:34:40.803Z,99.99
2022-10-03T05:35:40.795Z,99.99
2022-10-03T05:36:40.786Z,99.99
2022-10-03T05:37:40.785Z,99.99
2022-10-03T05:38:40.768Z,99.99
2022-10-03T05:39:40.762Z,99.99
2022-10-03T05:40:40.758Z,99.99
2022-10-03T05:41:40.989Z,99.99
2022-10-03T05:42:40.733Z,99.99
2022-10-03T05:43:40.756Z,99.99
2022-10-03T05:44:40.725Z,99.99
2022-10-03T05:45:40.781Z,99.99
2022-10-03T05:46:40.703Z,99.99
2022-10-03T05:47:40.696Z,99.99
2022-10-03T05:48:40.714Z,99.99
2022-10-03T05:49:40.678Z,99.99
2022-10-03T05:50:40.689Z,99.99
2022-10-03T05:51:41.295Z,99.99
2022-10-03T05:52:40.651Z,99.99
2022-10-03T05:53:40.669Z,99.99
2022-10-03T05:54:40.639Z,99.93
2022-10-03T05:55:40.628Z,99.99
2022-10-03T05:56:41.237Z,99.41
2022-10-03T05:57:41.620Z,99.99
2022-10-03T05:58:40.613Z,99.99
2022-10-03T05:59:40.606Z,99.82
2022-10-03T06:00:40.592Z,99.51
2022-10-03T06:01:41.138Z,99.67
2022-10-03T06:02:40.770Z,99.41
2022-10-03T06:03:40.588Z,99.62
2022-10-03T06:04:40.560Z,99.93
2022-10-03T06:05:40.548Z,99.62
2022-10-03T06:06:40.552Z,99.16
2022-10-03T06:07:40.534Z,99.41
2022-10-03T06:08:40.581Z,99.77
2022-10-03T06:09:40.521Z,99.99
2022-10-03T06:10:40.529Z,99.57
2022-10-03T06:11:41.077Z,98.96
2022-10-03T06:12:40.511Z,98.65
2022-10-03T06:13:40.524Z,98.33
2022-10-03T06:14:40.493Z,99.42
2022-10-03T06:15:40.545Z,98.85
2022-10-03T06:16:40.464Z,98.19
2022-10-03T06:17:43.107Z,98.54
2022-10-03T06:18:41.453Z,98.44
2022-10-03T06:19:40.451Z,98.75
2022-10-03T06:20:40.439Z,98.70
2022-10-03T06:21:40.968Z,98.50
2022-10-03T06:22:40.422Z,98.60
2022-10-03T06:23:40.414Z,98.60
2022-10-03T06:24:40.407Z,98.50
2022-10-03T06:25:40.403Z,98.60
2022-10-03T06:26:40.424Z,98.96
2022-10-03T06:27:40.429Z,98.76
2022-10-03T06:28:40.374Z,98.25
2022-10-03T06:29:40.363Z,98.66
2022-10-03T06:30:40.438Z,98.25
2022-10-03T06:31:40.662Z,96.91
2022-10-03T06:32:40.348Z,97.53
2022-10-03T06:33:40.333Z,97.02
2022-10-03T06:34:40.339Z,96.30
2022-10-03T06:35:40.322Z,97.02
2022-10-03T06:36:40.326Z,96.50
2022-10-03T06:37:40.309Z,96.66
2022-10-03T06:38:40.290Z,97.07
2022-10-03T06:39:40.290Z,97.48
2022-10-03T06:40:40.273Z,96.66
2022-10-03T06:41:40.682Z,96.87
2022-10-03T06:42:40.271Z,96.20
2022-10-03T06:43:41.268Z,96.20
2022-10-03T06:44:40.238Z,96.10
2022-10-03T06:45:40.238Z,96.20
2022-10-03T06:46:40.295Z,96.31
2022-10-03T06:47:40.218Z,96.20
2022-10-03T06:48:40.207Z,96.20
2022-10-03T06:49:40.638Z,96.51
2022-10-03T06:50:40.203Z,96.20
2022-10-03T06:51:40.648Z,96.78
2022-10-03T06:52:40.179Z,96.37
2022-10-03T06:53:40.197Z,95.14
2022-10-03T06:54:40.170Z,94.93
2022-10-03T06:55:40.173Z,95.14
2022-10-03T06:56:41.209Z,95.03
2022-10-03T06:57:40.137Z,94.62
2022-10-03T06:58:40.128Z,94.83
2022-10-03T06:59:40.125Z,95.34
2022-10-03T07:00:40.115Z,95.14
2022-10-03T07:01:40.423Z,95.03
2022-10-03T07:02:40.117Z,95.29
2022-10-03T07:03:40.105Z,94.37
2022-10-03T07:04:40.095Z,94.89
2022-10-03T07:05:41.283Z,94.17
2022-10-03T07:06:41.063Z,94.48
2022-10-03T07:07:40.077Z,94.37
2022-10-03T07:08:40.061Z,94.27
2022-10-03T07:09:40.039Z,94.48
2022-10-03T07:10:40.037Z,94.78
2022-10-03T07:11:40.421Z,96.12
2022-10-03T07:12:40.023Z,95.25
2022-10-03T07:13:40.003Z,94.43
2022-10-03T07:14:40.030Z,94.59
2022-10-03T07:16:08.402Z,92.75
2022-10-03T07:16:42.014Z,92.85
2022-10-03T07:17:39.971Z,92.75
2022-10-03T07:18:39.967Z,92.96
2022-10-03T07:19:39.984Z,92.85
2022-10-03T07:20:39.964Z,92.96
2022-10-03T07:21:40.402Z,93.06
2022-10-03T07:22:39.992Z,92.75
2022-10-03T07:23:39.938Z,92.14
2022-10-03T07:24:39.920Z,92.60
2022-10-03T07:25:39.918Z,92.87
2022-10-03T07:26:39.916Z,93.99
2022-10-03T07:27:39.895Z,93.48
2022-10-03T07:28:40.050Z,91.74
2022-10-03T07:29:39.888Z,92.01
2022-10-03T07:30:39.875Z,91.91
2022-10-03T07:31:40.191Z,90.74
2022-10-03T07:32:39.857Z,90.94
2022-10-03T07:33:39.860Z,89.92
2022-10-03T07:34:39.845Z,90.08
2022-10-03T07:35:39.835Z,89.00
2022-10-03T07:36:39.841Z,88.76
2022-10-03T07:37:39.839Z,89.88
2022-10-03T07:38:39.821Z,89.73
2022-10-03T07:39:39.802Z,89.12
2022-10-03T07:40:40.561Z,88.41
2022-10-03T07:41:40.112Z,90.00
2022-10-03T07:42:43.522Z,87.76
2022-10-03T07:43:42.057Z,87.76
2022-10-03T07:44:39.758Z,88.43
2022-10-03T07:45:39.754Z,87.92
2022-10-03T07:46:39.790Z,86.49
2022-10-03T07:47:39.745Z,86.33
2022-10-03T07:48:39.725Z,86.63
2022-10-03T07:49:39.731Z,87.61
2022-10-03T07:50:39.715Z,87.51
2022-10-03T07:51:40.138Z,86.29
2022-10-03T07:52:39.716Z,85.94
2022-10-03T07:53:39.699Z,86.15
2022-10-03T07:54:39.708Z,85.39
2022-10-03T07:55:39.684Z,84.27
2022-10-03T07:56:39.663Z,85.63
2022-10-03T07:57:39.683Z,85.53
2022-10-03T07:58:39.656Z,85.53
2022-10-03T07:59:39.657Z,86.18
2022-10-03T08:00:40.833Z,86.76
2022-10-03T08:01:41.943Z,86.00
2022-10-03T08:02:39.655Z,84.78
2022-10-03T08:03:40.596Z,85.39
2022-10-03T08:04:39.602Z,85.60
2022-10-03T08:05:39.593Z,85.19
2022-10-03T08:06:39.599Z,84.94
2022-10-03T08:07:39.573Z,85.25
2022-10-03T08:08:39.569Z,84.12
2022-10-03T08:09:39.580Z,84.53
2022-10-03T08:10:40.799Z,84.39
2022-10-03T08:11:40.914Z,83.78
2022-10-03T08:12:39.537Z,82.97
2022-10-03T08:13:39.589Z,83.13
2022-10-03T08:14:39.519Z,83.34
2022-10-03T08:15:39.549Z,82.73
2022-10-03T08:16:39.513Z,82.62
2022-10-03T08:17:39.556Z,82.07
2022-10-03T08:18:39.496Z,82.18
2022-10-03T08:19:39.483Z,81.26
2022-10-03T08:20:39.482Z,81.57
2022-10-03T08:21:39.819Z,81.43
2022-10-03T08:22:39.459Z,81.26
2022-10-03T08:23:39.467Z,81.53
2022-10-03T08:24:39.454Z,81.26
2022-10-03T08:25:39.461Z,81.46
2022-10-03T08:26:39.457Z,81.77
2022-10-03T08:27:39.425Z,81.77
2022-10-03T08:28:39.415Z,81.51
2022-10-03T08:29:39.407Z,81.57
2022-10-03T08:30:39.396Z,81.77
2022-10-03T08:31:39.739Z,81.67
2022-10-03T08:32:39.417Z,81.16
2022-10-03T08:33:39.386Z,81.57
2022-10-03T08:34:39.399Z,81.57
2022-10-03T08:35:39.371Z,81.37
2022-10-03T08:36:39.365Z,81.26
2022-10-03T08:37:39.348Z,81.67
2022-10-03T08:38:39.358Z,81.46
2022-10-03T08:39:39.344Z,81.33
2022-10-03T08:40:39.351Z,81.46
2022-10-03T08:41:39.571Z,81.43
2022-10-03T08:42:40.167Z,81.57
2022-10-03T08:43:39.311Z,81.71
2022-10-03T08:44:39.286Z,81.77
2022-10-03T08:45:39.280Z,81.81
2022-10-03T08:46:39.343Z,82.52
2022-10-03T08:47:39.263Z,82.52
2022-10-03T08:48:39.268Z,82.32
2022-10-03T08:49:39.264Z,82.93
2022-10-03T08:50:39.259Z,82.93
2022-10-03T08:51:40.625Z,82.82
2022-10-03T08:52:39.223Z,83.34
2022-10-03T08:53:39.276Z,83.44
2022-10-03T08:54:39.211Z,83.44
2022-10-03T08:55:39.206Z,83.54
2022-10-03T08:56:39.187Z,83.98
2022-10-03T08:57:39.189Z,83.64
2022-10-03T08:58:39.183Z,83.09
2022-10-03T08:59:39.185Z,82.89
2022-10-03T09:00:39.178Z,82.45
2022-10-03T09:01:39.509Z,82.14
2022-10-03T09:02:39.226Z,81.49
2022-10-03T09:03:43.198Z,81.09
2022-10-03T09:04:40.159Z,80.94
2022-10-03T09:05:39.126Z,80.84
2022-10-03T09:06:52.749Z,80.80
2022-10-03T09:07:41.160Z,80.10
2022-10-03T09:08:39.093Z,80.10
2022-10-03T09:09:39.096Z,79.85
2022-10-03T09:10:39.079Z,79.25
2022-10-03T09:11:40.142Z,79.14
2022-10-03T09:12:39.426Z,79.45
2022-10-03T09:13:39.075Z,79.04
2022-10-03T09:14:39.074Z,78.60
2022-10-03T09:15:39.144Z,79.00
2022-10-03T09:16:39.384Z,78.16
2022-10-03T09:17:39.043Z,77.89
2022-10-03T09:18:39.027Z,78.19
2022-10-03T09:19:39.038Z,78.09
2022-10-03T09:20:39.010Z,79.14
2022-10-03T09:21:39.004Z,79.31
2022-10-03T09:22:39.030Z,79.11
2022-10-03T09:23:38.996Z,79.21
2022-10-03T09:24:38.973Z,78.60
2022-10-03T09:25:40.299Z,79.55
2022-10-03T09:26:40.104Z,80.06
2022-10-03T09:27:39.952Z,80.60
2022-10-03T09:28:40.247Z,80.80
2022-10-03T09:29:39.671Z,80.77
2022-10-03T09:30:38.960Z,80.80
2022-10-03T09:31:39.356Z,81.11
2022-10-03T09:32:38.908Z,80.80
2022-10-03T09:33:38.933Z,80.87
2022-10-03T09:34:38.939Z,81.11
2022-10-03T09:35:39.185Z,80.87
2022-10-03T09:36:38.879Z,80.87
2022-10-03T09:37:39.699Z,80.12
2022-10-03T09:38:38.998Z,79.38
2022-10-03T09:39:38.945Z,78.22
2022-10-03T09:40:39.753Z,77.61
2022-10-03T09:41:39.170Z,78.02
2022-10-03T09:42:39.742Z,76.46
2022-10-03T09:43:38.911Z,75.76
2022-10-03T09:44:38.832Z,76.67
2022-10-03T09:45:38.865Z,76.97
2022-10-03T09:46:41.886Z,77.68
2022-10-03T09:47:39.796Z,76.97
2022-10-03T09:48:38.801Z,77.51
2022-10-03T09:49:38.794Z,77.11
2022-10-03T09:50:38.807Z,77.61
2022-10-03T09:51:39.214Z,78.12
2022-10-03T09:52:38.777Z,78.46
2022-10-03T09:53:38.749Z,78.22
2022-10-03T09:54:38.850Z,77.72
2022-10-03T09:55:38.743Z,77.61
2022-10-03T09:56:39.033Z,77.75
2022-10-03T09:57:38.717Z,77.51
2022-10-03T09:58:38.762Z,77.48
2022-10-03T09:59:38.737Z,76.43
2022-10-03T10:00:38.779Z,75.85
2022-10-03T10:01:38.945Z,76.36
2022-10-03T10:02:38.677Z,77.78
2022-10-03T10:03:40.243Z,77.58
2022-10-03T10:04:54.363Z,77.34
2022-10-03T10:05:40.666Z,76.39
2022-10-03T10:06:38.928Z,75.68
2022-10-03T10:07:40.160Z,75.45
2022-10-03T10:08:39.200Z,75.24
2022-10-03T10:09:38.640Z,75.65
2022-10-03T10:10:38.665Z,75.01
2022-10-03T10:11:39.177Z,74.60
2022-10-03T10:12:38.668Z,74.40
2022-10-03T10:14:03.211Z,74.46
2022-10-03T10:14:40.585Z,74.37
2022-10-03T10:15:38.622Z,73.82
2022-10-03T10:16:39.069Z,73.42
2022-10-03T10:17:38.693Z,73.22
2022-10-03T10:18:38.557Z,73.32
2022-10-03T10:19:38.567Z,73.28
2022-10-03T10:20:38.654Z,72.98
2022-10-03T10:21:38.566Z,72.04
2022-10-03T10:22:38.533Z,70.69
2022-10-03T10:23:38.553Z,70.36
2022-10-03T10:24:38.513Z,68.65
2022-10-03T10:25:38.524Z,66.90
2022-10-03T10:26:38.491Z,65.32
2022-10-03T10:27:38.489Z,65.39
2022-10-03T10:28:38.499Z,65.49
2022-10-03T10:29:38.459Z,65.19
2022-10-03T10:30:38.459Z,65.09
2022-10-03T10:31:38.556Z,64.35
2022-10-03T10:32:38.451Z,64.18
2022-10-03T10:33:38.486Z,64.69
2022-10-03T10:34:38.437Z,62.74
2022-10-03T10:35:38.417Z,63.37
2022-10-03T10:36:38.773Z,63.47
2022-10-03T10:37:41.596Z,62.87
2022-10-03T10:38:39.398Z,62.97
2022-10-03T10:39:38.395Z,62.97
2022-10-03T10:40:38.382Z,63.20
2022-10-03T10:41:38.715Z,64.01
2022-10-03T10:42:38.368Z,64.04
2022-10-03T10:43:38.366Z,64.34
2022-10-03T10:44:38.372Z,63.84
2022-10-03T10:45:38.343Z,64.84
2022-10-03T10:46:38.689Z,64.67
2022-10-03T10:47:38.325Z,65.01
2022-10-03T10:48:38.331Z,65.14
2022-10-03T10:49:38.326Z,66.69
2022-10-03T10:50:40.125Z,66.48
2022-10-03T10:51:38.294Z,67.29
2022-10-03T10:52:39.309Z,67.60
2022-10-03T10:53:38.283Z,67.29
2022-10-03T10:54:38.280Z,66.65
2022-10-03T10:55:40.773Z,67.06
2022-10-03T10:56:38.629Z,66.93
2022-10-03T10:57:38.248Z,66.79
2022-10-03T10:58:38.244Z,65.99
2022-10-03T10:59:38.231Z,65.65
2022-10-03T11:00:38.323Z,65.05
2022-10-03T11:01:39.443Z,64.11
2022-10-03T11:02:38.210Z,64.41
2022-10-03T11:03:38.226Z,63.50
2022-10-03T11:04:38.244Z,64.01
2022-10-03T11:05:38.243Z,63.47
2022-10-03T11:06:38.612Z,62.87
2022-10-03T11:07:38.174Z,63.07
2022-10-03T11:08:38.159Z,62.61
2022-10-03T11:09:38.162Z,61.70
2022-10-03T11:10:39.735Z,62.10
2022-10-03T11:11:38.136Z,61.70
2022-10-03T11:12:38.169Z,61.50
2022-10-03T11:13:38.670Z,60.80
2022-10-03T11:14:38.130Z,61.93
2022-10-03T11:15:38.701Z,61.86
2022-10-03T11:16:38.551Z,61.96
2022-10-03T11:17:38.107Z,61.96
2022-10-03T11:18:38.097Z,61.79
2022-10-03T11:19:38.075Z,62.49
2022-10-03T11:20:38.086Z,62.80
2022-10-03T11:21:38.072Z,63.50
2022-10-03T11:22:38.044Z,62.46
2022-10-03T11:23:38.040Z,62.37
2022-10-03T11:24:38.051Z,61.76
2022-10-03T11:25:38.034Z,61.96
2022-10-03T11:26:38.450Z,62.24
2022-10-03T11:27:38.002Z,61.93
2022-10-03T11:28:38.079Z,61.50
2022-10-03T11:29:38.004Z,62.34
2022-10-03T11:30:38.019Z,61.36
2022-10-03T11:31:38.091Z,61.96
2022-10-03T11:32:37.984Z,62.16
2022-10-03T11:33:37.963Z,61.93
2022-10-03T11:34:37.950Z,61.83
2022-10-03T11:35:42.238Z,62.13
2022-10-03T11:36:40.291Z,60.35
2022-10-03T11:37:37.927Z,60.93
2022-10-03T11:38:37.936Z,60.96
2022-10-03T11:39:37.914Z,61.39
2022-10-03T11:40:37.902Z,60.96
2022-10-03T11:41:37.890Z,60.71
2022-10-03T11:42:37.892Z,61.82
2022-10-03T11:43:37.882Z,62.19
2022-10-03T11:44:37.866Z,61.89
2022-10-03T11:45:37.931Z,61.79
2022-10-03T11:46:38.311Z,61.76
2022-10-03T11:47:37.879Z,60.83
2022-10-03T11:48:37.852Z,60.93
2022-10-03T11:49:37.847Z,59.82
2022-10-03T11:50:37.862Z,59.62
2022-10-03T11:51:38.651Z,60.32
2022-10-03T11:52:37.806Z,60.29
2022-10-03T11:53:37.884Z,59.39
2022-10-03T11:54:37.786Z,59.28
2022-10-03T11:55:37.791Z,58.65
2022-10-03T11:56:38.276Z,59.46
2022-10-03T11:57:37.791Z,58.35
2022-10-03T11:58:37.765Z,57.15
2022-10-03T11:59:37.761Z,57.15
2022-10-03T12:00:37.762Z,57.35
2022-10-03T12:01:38.105Z,57.35
2022-10-03T12:02:37.812Z,58.18
2022-10-03T12:03:37.759Z,57.98
2022-10-03T12:04:37.730Z,57.30
2022-10-03T12:05:37.708Z,57.83
2022-10-03T12:06:37.923Z,58.64
2022-10-03T12:07:37.711Z,59.01
2022-10-03T12:08:37.713Z,58.38
2022-10-03T12:09:37.688Z,58.38
2022-10-03T12:10:37.666Z,57.57
2022-10-03T12:11:37.972Z,57.68
2022-10-03T12:12:37.658Z,58.38
2022-10-03T12:13:37.674Z,58.35
2022-10-03T12:14:37.647Z,57.55
2022-10-03T12:15:37.632Z,58.21
2022-10-03T12:16:37.652Z,59.44
2022-10-03T12:17:37.626Z,58.94
2022-10-03T12:18:37.622Z,58.87
2022-10-03T12:19:37.608Z,58.94
2022-10-03T12:20:37.595Z,59.34
2022-10-03T12:21:37.864Z,59.24
2022-10-03T12:22:38.576Z,59.01
2022-10-03T12:23:38.222Z,59.04
2022-10-03T12:24:37.560Z,58.81
2022-10-03T12:25:37.566Z,58.84
2022-10-03T12:26:37.582Z,59.55
2022-10-03T12:27:37.551Z,59.14
2022-10-03T12:28:37.587Z,58.64
2022-10-03T12:29:37.534Z,58.81
2022-10-03T12:30:37.534Z,59.22
2022-10-03T12:31:37.805Z,58.91
2022-10-03T12:32:37.502Z,58.38
2022-10-03T12:33:37.493Z,58.58
2022-10-03T12:34:37.511Z,59.28
2022-10-03T12:35:37.476Z,58.98
2022-10-03T12:36:37.676Z,57.75
2022-10-03T12:37:37.477Z,57.75
2022-10-03T12:38:37.455Z,57.95
2022-10-03T12:39:37.447Z,58.55
2022-10-03T12:40:37.434Z,57.65
2022-10-03T12:41:37.921Z,58.12
2022-10-03T12:42:37.427Z,58.12
2022-10-03T12:43:37.432Z,57.82
2022-10-03T12:44:37.410Z,57.32
2022-10-03T12:45:37.423Z,57.22
2022-10-03T12:46:37.417Z,57.32
2022-10-03T12:47:54.746Z,57.24
2022-10-03T12:48:39.385Z,57.45
2022-10-03T12:49:37.511Z,57.48
2022-10-03T12:50:37.367Z,57.68
2022-10-03T12:51:37.712Z,57.68
2022-10-03T12:52:37.358Z,58.58
2022-10-03T12:53:37.340Z,58.21